UTNN

Nukus Airport

Nukus, Uzbekistan
TAF UTNN 182300Z 1900/1924 18012G22KT 5000 BR OVC007 TEMPO 1901/1906 0800 SN FZFG VV002 BECMG 1906/1908 27014G24KT BKN015 BKN100
Issued Valid From Valid To
Jan-18 @ 23:00 UTC
(4 hours ago)
Jan-19 @ 00:00 UTC
(3 hours ago)
Jan-20 @ 00:00 UTC
(in 21 hours)
Jan-19 @ 00:00 to Jan-19 @ 06:00
TAF UTNN 182300Z 1900/1924 18012G22KT 5000 BR OVC007
Wind Visibility Clouds Conditions
180° at 12 knots
 Gusting to 22 knots
5,005 meters
  • Overcast at 700' AGL
  • Mist
Temporary Jan-19 @ 01:00 to Jan-19 @ 06:00
TEMPO 1901/1906 0800 SN FZFG VV002
Visibility Clouds Conditions
805 meters
  • Vertical visibility at 200' AGL
  • Snow
  • Freezing
  • Fog
Becoming Jan-19 @ 06:00 to Jan-20 @ 00:00
BECMG 1906/1908 27014G24KT BKN015 BKN100
Wind Visibility Clouds Conditions
270° at 14 knots
 Gusting to 24 knots
5,005 meters
  • Broken at 1,500' AGL
  • Broken at 10,000' AGL
  • Mist
TAF UTNN 182300Z 1900/1924 18012G22KT 5000 BR OVC007 TEMPO 1901/1906 0800 SN FZFG VV002 BECMG 1906/1908 27014G24KT BKN015 BKN100
Issued Jan-18 @ 23:00 UTC
(4 hours ago)
Valid From Jan-19 @ 00:00 UTC
(3 hours ago)
Valid To Jan-20 @ 00:00 UTC
(in 21 hours)
Jan-19 @ 00:00 - Jan-19 @ 06:00
Wind Visibility
180° at 12 knots
 Gusting to 22 knots
5,005 meters
Clouds
  • Overcast at 700' AGL
Conditions
  • Mist
Temporary Jan-19 @ 01:00 - Jan-19 @ 06:00
Clouds
  • Vertical visibility at 200' AGL
Conditions
  • Snow
  • Freezing
  • Fog
Becoming Jan-19 @ 06:00 - Jan-20 @ 00:00
Wind Visibility
270° at 14 knots
 Gusting to 24 knots
5,005 meters
Clouds
  • Broken at 1,500' AGL
  • Broken at 10,000' AGL
Conditions
  • Mist